sensor_id;sensor_type;location;lat;lon;timestamp;P1;P2;P0
47709;PMS7003;33473;51.640;5.892;2023-10-19T00:04:30;14.41;16.25;11.13
47709;PMS7003;33473;51.640;5.892;2023-10-19T00:17:51;14.41;16.03;11.13
47709;PMS7003;33473;51.640;5.892;2023-10-19T00:31:11;15.73;16.9;11.45
47709;PMS7003;33473;51.640;5.892;2023-10-19T00:44:31;13.57;15.27;10.91
47709;PMS7003;33473;51.640;5.892;2023-10-19T00:57:52;13.21;15.16;10.36
47709;PMS7003;33473;51.640;5.892;2023-10-19T01:11:13;13.09;14.94;10.15
47709;PMS7003;33473;51.640;5.892;2023-10-19T01:24:35;14.29;14.4;10.04
47709;PMS7003;33473;51.640;5.892;2023-10-19T01:37:54;11.89;13.85;9.93
47709;PMS7003;33473;51.640;5.892;2023-10-19T01:51:16;10.33;12.54;8.95
47709;PMS7003;33473;51.640;5.892;2023-10-19T02:04:37;9.61;11.89;8.84
47709;PMS7003;33473;51.640;5.892;2023-10-19T02:17:58;9.37;11.78;8.51
47709;PMS7003;33473;51.640;5.892;2023-10-19T02:31:19;8.05;10.58;7.86
47709;PMS7003;33473;51.640;5.892;2023-10-19T02:44:41;8.17;10.69;7.64
47709;PMS7003;33473;51.640;5.892;2023-10-19T02:58:00;7.81;10.04;7.42
47709;PMS7003;33473;51.640;5.892;2023-10-19T03:11:22;6.49;8.95;6.77
47709;PMS7003;33473;51.640;5.892;2023-10-19T03:24:43;6.97;9.49;6.88
47709;PMS7003;33473;51.640;5.892;2023-10-19T03:38:04;6.49;8.95;6.99
47709;PMS7003;33473;51.640;5.892;2023-10-19T03:51:26;6.73;8.73;6.55
47709;PMS7003;33473;51.640;5.892;2023-10-19T04:04:45;6.25;8.84;6.44
47709;PMS7003;33473;51.640;5.892;2023-10-19T04:18:07;5.17;7.86;6.22
47709;PMS7003;33473;51.640;5.892;2023-10-19T04:31:28;9.01;7.53;5.79
47709;PMS7003;33473;51.640;5.892;2023-10-19T04:44:49;3.97;6.66;5.24
47709;PMS7003;33473;51.640;5.892;2023-10-19T04:58:09;3.85;6.66;5.13
47709;PMS7003;33473;51.640;5.892;2023-10-19T05:11:29;0.72;3.61;2.84
47709;PMS7003;33473;51.640;5.892;2023-10-19T05:24:50;0.0;2.73;2.3
47709;PMS7003;33473;51.640;5.892;2023-10-19T05:38:10;0.36;2.62;2.08
47709;PMS7003;33473;51.640;5.892;2023-10-19T05:51:31;0.6;2.95;2.3
47709;PMS7003;33473;51.640;5.892;2023-10-19T06:04:52;0.96;2.62;1.97
47709;PMS7003;33473;51.640;5.892;2023-10-19T06:18:13;0.01;2.52;1.97
47709;PMS7003;33473;51.640;5.892;2023-10-19T06:31:35;0.01;2.95;2.19
47709;PMS7003;33473;51.640;5.892;2023-10-19T06:44:54;0.01;2.62;1.97
47709;PMS7003;33473;51.640;5.892;2023-10-19T06:58:16;1.2;2.95;2.3
47709;PMS7003;33473;51.640;5.892;2023-10-19T07:11:37;1.44;2.95;2.19
47709;PMS7003;33473;51.640;5.892;2023-10-19T07:24:58;1.44;3.71;2.62
47709;PMS7003;33473;51.640;5.892;2023-10-19T07:38:19;0.36;3.28;2.52
47709;PMS7003;33473;51.640;5.892;2023-10-19T07:51:41;0.6;3.71;2.84
47709;PMS7003;33473;51.640;5.892;2023-10-19T08:05:02;0.84;3.71;3.06
47709;PMS7003;33473;51.640;5.892;2023-10-19T08:18:22;2.76;4.37;3.39
47709;PMS7003;33473;51.640;5.892;2023-10-19T08:31:43;1.92;4.04;3.39
47709;PMS7003;33473;51.640;5.892;2023-10-19T08:45:03;1.68;4.7;3.71
47709;PMS7003;33473;51.640;5.892;2023-10-19T08:58:24;1.8;4.8;3.61
47709;PMS7003;33473;51.640;5.892;2023-10-19T09:11:44;3.85;5.35;4.15
47709;PMS7003;33473;51.640;5.892;2023-10-19T09:25:03;3.24;5.02;3.82
47709;PMS7003;33473;51.640;5.892;2023-10-19T09:38:25;3.48;3.93;3.06
47709;PMS7003;33473;51.640;5.892;2023-10-19T09:51:46;0.24;3.28;2.52
47709;PMS7003;33473;51.640;5.892;2023-10-19T10:05:06;0.01;2.3;1.64
47709;PMS7003;33473;51.640;5.892;2023-10-19T10:18:26;0.01;1.97;1.54
47709;PMS7003;33473;51.640;5.892;2023-10-19T10:31:47;0.72;2.3;1.54
47709;PMS7003;33473;51.640;5.892;2023-10-19T10:45:08;4.81;2.41;1.64
47709;PMS7003;33473;51.640;5.892;2023-10-19T10:58:29;0.84;2.62;1.64
47709;PMS7003;33473;51.640;5.892;2023-10-19T11:11:49;0.48;3.06;2.19
47709;PMS7003;33473;51.640;5.892;2023-10-19T11:25:09;1.68;3.06;2.08
47709;PMS7003;33473;51.640;5.892;2023-10-19T11:38:30;1.32;3.28;2.19
47709;PMS7003;33473;51.640;5.892;2023-10-19T11:51:50;1.2;3.5;2.19
47709;PMS7003;33473;51.640;5.892;2023-10-19T12:05:09;1.8;2.84;1.86
47709;PMS7003;33473;51.640;5.892;2023-10-19T12:18:31;0.01;2.84;1.75
47709;PMS7003;33473;51.640;5.892;2023-10-19T12:31:50;1.68;3.28;1.97
47709;PMS7003;33473;51.640;5.892;2023-10-19T12:45:10;0.01;2.52;1.75
47709;PMS7003;33473;51.640;5.892;2023-10-19T12:58:30;1.2;3.39;2.41
47709;PMS7003;33473;51.640;5.892;2023-10-19T13:11:50;5.29;4.04;2.84
47709;PMS7003;33473;51.640;5.892;2023-10-19T13:25:11;2.04;3.39;2.62
47709;PMS7003;33473;51.640;5.892;2023-10-19T13:38:30;0.84;2.62;1.86
47709;PMS7003;33473;51.640;5.892;2023-10-19T13:51:50;1.2;3.82;2.73
47709;PMS7003;33473;51.640;5.892;2023-10-19T14:05:11;1.68;4.59;3.39
47709;PMS7003;33473;51.640;5.892;2023-10-19T14:18:31;5.05;5.46;3.71
47709;PMS7003;33473;51.640;5.892;2023-10-19T14:31:51;3.6;5.24;4.04
47709;PMS7003;33473;51.640;5.892;2023-10-19T14:45:12;7.21;6.22;4.37
47709;PMS7003;33473;51.640;5.892;2023-10-19T14:58:33;5.17;5.35;4.26
47709;PMS7003;33473;51.640;5.892;2023-10-19T15:11:55;2.04;4.91;3.61
47709;PMS7003;33473;51.640;5.892;2023-10-19T15:25:15;1.56;4.7;3.39
47709;PMS7003;33473;51.640;5.892;2023-10-19T15:38:34;2.16;5.02;3.82
47709;PMS7003;33473;51.640;5.892;2023-10-19T15:51:54;3.97;5.02;3.82
47709;PMS7003;33473;51.640;5.892;2023-10-19T16:05:14;1.56;4.59;3.5
47709;PMS7003;33473;51.640;5.892;2023-10-19T16:18:33;1.32;4.15;3.17
47709;PMS7003;33473;51.640;5.892;2023-10-19T16:31:53;1.08;4.04;2.84
47709;PMS7003;33473;51.640;5.892;2023-10-19T16:45:13;2.16;4.26;3.06
47709;PMS7003;33473;51.640;5.892;2023-10-19T16:58:32;2.76;4.37;3.28
47709;PMS7003;33473;51.640;5.892;2023-10-19T17:11:52;5.77;4.8;3.5
47709;PMS7003;33473;51.640;5.892;2023-10-19T17:25:12;2.52;5.24;3.5
47709;PMS7003;33473;51.640;5.892;2023-10-19T17:38:32;2.16;5.13;3.93
47709;PMS7003;33473;51.640;5.892;2023-10-19T17:51:51;3.73;5.35;4.04
47709;PMS7003;33473;51.640;5.892;2023-10-19T18:05:13;3.24;5.57;4.15
47709;PMS7003;33473;51.640;5.892;2023-10-19T18:18:33;4.69;6.44;4.7
47709;PMS7003;33473;51.640;5.892;2023-10-19T18:31:54;4.69;7.09;5.46
47709;PMS7003;33473;51.640;5.892;2023-10-19T18:45:15;5.89;7.97;5.9
47709;PMS7003;33473;51.640;5.892;2023-10-19T18:58:36;5.89;8.51;5.9
47709;PMS7003;33473;51.640;5.892;2023-10-19T19:11:58;6.73;9.06;6.22
47709;PMS7003;33473;51.640;5.892;2023-10-19T19:25:19;7.21;9.38;6.88
47709;PMS7003;33473;51.640;5.892;2023-10-19T19:38:39;9.13;9.49;6.77
47709;PMS7003;33473;51.640;5.892;2023-10-19T19:52:00;8.17;9.93;7.09
47709;PMS7003;33473;51.640;5.892;2023-10-19T20:05:20;9.97;10.36;7.2
47709;PMS7003;33473;51.640;5.892;2023-10-19T20:18:39;9.37;11.67;7.97
47709;PMS7003;33473;51.640;5.892;2023-10-19T20:32:01;9.01;11.24;8.08
47709;PMS7003;33473;51.640;5.892;2023-10-19T20:45:22;14.29;13.74;8.84
47709;PMS7003;33473;51.640;5.892;2023-10-19T20:58:43;10.93;12.33;8.62
47709;PMS7003;33473;51.640;5.892;2023-10-19T21:12:03;11.05;12.11;8.73
47709;PMS7003;33473;51.640;5.892;2023-10-19T21:25:23;10.93;12.65;8.51
47709;PMS7003;33473;51.640;5.892;2023-10-19T21:38:42;11.41;12.11;8.73
47709;PMS7003;33473;51.640;5.892;2023-10-19T21:52:04;10.93;12.11;8.73
47709;PMS7003;33473;51.640;5.892;2023-10-19T22:05:25;10.21;12.22;8.73
47709;PMS7003;33473;51.640;5.892;2023-10-19T22:32:06;11.17;12.33;8.95
47709;PMS7003;33473;51.640;5.892;2023-10-19T22:45:27;9.97;12.11;8.95
47709;PMS7003;33473;51.640;5.892;2023-10-19T22:58:49;8.89;11.35;8.29
47709;PMS7003;33473;51.640;5.892;2023-10-19T23:12:10;9.37;11.78;8.51
47709;PMS7003;33473;51.640;5.892;2023-10-19T23:25:31;8.77;11.24;7.97
47709;PMS7003;33473;51.640;5.892;2023-10-19T23:38:51;9.01;10.8;7.75
47709;PMS7003;33473;51.640;5.892;2023-10-19T23:52:12;11.53;11.35;8.08
